createdAt,value
2023-01-31T00:00:33.609Z,986.98
2023-01-31T00:01:33.587Z,986.98
2023-01-31T00:02:33.622Z,986.96
2023-01-31T00:03:33.568Z,987.04
2023-01-31T00:04:33.531Z,986.99
2023-01-31T00:05:33.520Z,986.88
2023-01-31T00:06:33.505Z,986.93
2023-01-31T00:07:33.495Z,986.94
2023-01-31T00:08:33.485Z,986.91
2023-01-31T00:09:33.471Z,986.90
2023-01-31T00:10:33.464Z,986.87
2023-01-31T00:11:33.463Z,986.94
2023-01-31T00:12:33.782Z,986.92
2023-01-31T00:13:33.424Z,986.88
2023-01-31T00:14:33.404Z,986.94
2023-01-31T00:15:33.410Z,986.88
2023-01-31T00:16:33.402Z,986.87
2023-01-31T00:17:33.358Z,986.91
2023-01-31T00:18:33.347Z,986.85
2023-01-31T00:19:33.330Z,986.86
2023-01-31T00:20:33.318Z,986.93
2023-01-31T00:21:33.334Z,986.85
2023-01-31T00:22:33.299Z,986.85
2023-01-31T00:23:33.280Z,986.84
2023-01-31T00:24:33.279Z,986.88
2023-01-31T00:25:33.264Z,986.84
2023-01-31T00:26:33.376Z,986.86
2023-01-31T00:27:33.229Z,986.87
2023-01-31T00:28:33.215Z,986.88
2023-01-31T00:29:33.212Z,986.86
2023-01-31T00:30:33.181Z,986.88
2023-01-31T00:31:33.380Z,986.90
2023-01-31T00:32:33.181Z,986.86
2023-01-31T00:33:33.164Z,986.87
2023-01-31T00:34:33.134Z,986.81
2023-01-31T00:35:33.124Z,986.88
2023-01-31T00:36:33.117Z,986.90
2023-01-31T00:37:33.093Z,986.83
2023-01-31T00:38:33.085Z,986.83
2023-01-31T00:39:33.065Z,986.82
2023-01-31T00:40:33.059Z,986.78
2023-01-31T00:41:33.041Z,986.88
2023-01-31T00:42:33.023Z,986.82
2023-01-31T00:43:33.010Z,986.81
2023-01-31T00:44:32.994Z,986.83
2023-01-31T00:45:32.986Z,986.80
2023-01-31T00:46:32.988Z,986.79
2023-01-31T00:47:32.952Z,986.73
2023-01-31T00:48:32.969Z,986.79
2023-01-31T00:49:32.946Z,986.75
2023-01-31T00:50:32.919Z,986.79
2023-01-31T00:51:32.905Z,986.83
2023-01-31T00:52:32.941Z,986.77
2023-01-31T00:53:32.879Z,986.75
2023-01-31T00:54:32.863Z,986.70
2023-01-31T00:55:32.847Z,986.78
2023-01-31T00:56:32.832Z,986.73
2023-01-31T00:57:32.816Z,986.77
2023-01-31T00:58:32.812Z,986.75
2023-01-31T00:59:32.819Z,986.69
2023-01-31T01:00:32.825Z,986.67
2023-01-31T01:01:33.297Z,986.70
2023-01-31T01:02:33.380Z,986.72
2023-01-31T01:03:33.045Z,986.77
2023-01-31T01:04:32.940Z,986.78
2023-01-31T01:05:33.017Z,986.75
2023-01-31T01:06:32.843Z,986.78
2023-01-31T01:07:33.033Z,986.81
2023-01-31T01:08:32.813Z,986.80
2023-01-31T01:09:32.650Z,986.67
2023-01-31T01:10:32.642Z,986.75
2023-01-31T01:11:32.631Z,986.72
2023-01-31T01:12:33.059Z,986.72
2023-01-31T01:13:32.921Z,986.75
2023-01-31T01:14:33.111Z,986.79
2023-01-31T01:15:32.862Z,986.84
2023-01-31T01:16:32.866Z,986.79
2023-01-31T01:17:32.730Z,986.82
2023-01-31T01:18:32.537Z,986.86
2023-01-31T01:19:32.551Z,986.81
2023-01-31T01:20:32.531Z,986.85
2023-01-31T01:21:32.488Z,986.87
2023-01-31T01:22:32.475Z,986.83
2023-01-31T01:23:33.101Z,986.78
2023-01-31T01:24:32.892Z,986.81
2023-01-31T01:25:32.826Z,986.79
2023-01-31T01:26:32.941Z,986.78
2023-01-31T01:27:32.740Z,986.81
2023-01-31T01:28:32.419Z,986.75
2023-01-31T01:29:32.406Z,986.82
2023-01-31T01:30:32.373Z,986.78
2023-01-31T01:31:32.724Z,986.77
2023-01-31T01:32:32.343Z,986.72
2023-01-31T01:33:32.332Z,986.76
2023-01-31T01:34:32.310Z,986.75
2023-01-31T01:35:33.001Z,986.71
2023-01-31T01:36:32.560Z,986.78
2023-01-31T01:37:32.538Z,986.81
2023-01-31T01:38:32.482Z,986.76
2023-01-31T01:39:32.346Z,986.78
2023-01-31T01:40:32.315Z,986.78
2023-01-31T01:41:32.225Z,986.72
2023-01-31T01:42:32.263Z,986.76
2023-01-31T01:43:32.196Z,986.77
2023-01-31T01:44:32.187Z,986.71
2023-01-31T01:45:32.182Z,986.72
2023-01-31T01:46:32.850Z,986.77
2023-01-31T01:47:32.645Z,986.75
2023-01-31T01:48:32.445Z,986.76
2023-01-31T01:49:32.358Z,986.80
2023-01-31T01:50:32.235Z,986.80
2023-01-31T01:51:32.142Z,986.74
2023-01-31T01:52:32.151Z,986.71
2023-01-31T01:53:32.064Z,986.79
2023-01-31T01:54:32.054Z,986.78
2023-01-31T01:55:32.045Z,986.86
2023-01-31T01:56:32.027Z,986.88
2023-01-31T01:57:32.016Z,986.89
2023-01-31T01:58:32.003Z,986.91
2023-01-31T01:59:31.992Z,986.91
2023-01-31T02:00:32.219Z,986.99
2023-01-31T02:01:31.956Z,986.94
2023-01-31T02:02:32.269Z,986.99
2023-01-31T02:03:32.287Z,986.96
2023-01-31T02:04:31.918Z,986.91
2023-01-31T02:05:31.904Z,986.91
2023-01-31T02:06:31.894Z,986.90
2023-01-31T02:07:31.886Z,986.96
2023-01-31T02:08:31.904Z,986.96
2023-01-31T02:09:31.866Z,987.00
2023-01-31T02:10:31.842Z,986.94
2023-01-31T02:11:31.830Z,986.99
2023-01-31T02:12:32.025Z,986.97
2023-01-31T02:13:31.809Z,987.03
2023-01-31T02:14:31.792Z,987.00
2023-01-31T02:15:31.785Z,986.99
2023-01-31T02:16:31.776Z,987.00
2023-01-31T02:17:31.803Z,987.01
2023-01-31T02:18:31.838Z,987.04
2023-01-31T02:19:31.726Z,987.08
2023-01-31T02:20:31.815Z,987.13
2023-01-31T02:21:31.697Z,987.11
2023-01-31T02:22:31.781Z,987.11
2023-01-31T02:23:31.721Z,986.99
2023-01-31T02:24:31.932Z,987.06
2023-01-31T02:25:31.651Z,987.05
2023-01-31T02:26:31.880Z,987.07
2023-01-31T02:27:31.827Z,987.10
2023-01-31T02:28:31.754Z,987.09
2023-01-31T02:29:32.049Z,987.04
2023-01-31T02:30:31.682Z,987.07
2023-01-31T02:31:31.612Z,987.12
2023-01-31T02:32:31.555Z,987.04
2023-01-31T02:33:31.537Z,987.08
2023-01-31T02:34:31.529Z,987.13
2023-01-31T02:35:31.513Z,987.21
2023-01-31T02:36:31.507Z,987.16
2023-01-31T02:37:31.485Z,987.13
2023-01-31T02:38:31.502Z,987.03
2023-01-31T02:39:31.461Z,987.03
2023-01-31T02:40:31.483Z,987.06
2023-01-31T02:41:31.434Z,987.03
2023-01-31T02:42:31.427Z,987.06
2023-01-31T02:43:31.410Z,987.02
2023-01-31T02:44:31.394Z,986.97
2023-01-31T02:45:31.389Z,987.03
2023-01-31T02:46:31.381Z,987.13
2023-01-31T02:47:31.369Z,987.08
2023-01-31T02:48:31.339Z,987.08
2023-01-31T02:49:31.326Z,987.04
2023-01-31T02:50:31.333Z,987.10
2023-01-31T02:51:31.457Z,987.22
2023-01-31T02:52:31.301Z,987.14
2023-01-31T02:53:31.279Z,987.23
2023-01-31T02:54:31.416Z,987.27
2023-01-31T02:55:31.252Z,987.22
2023-01-31T02:56:31.267Z,987.33
2023-01-31T02:57:31.231Z,987.21
2023-01-31T02:58:31.207Z,987.33
2023-01-31T02:59:31.195Z,987.28
2023-01-31T03:00:31.189Z,987.21
2023-01-31T03:01:31.269Z,987.29
2023-01-31T03:02:31.202Z,987.16
2023-01-31T03:03:31.183Z,987.22
2023-01-31T03:04:31.134Z,987.23
2023-01-31T03:05:31.123Z,987.27
2023-01-31T03:06:31.104Z,987.28
2023-01-31T03:07:31.093Z,987.28
2023-01-31T03:08:31.073Z,987.33
2023-01-31T03:09:31.060Z,987.24
2023-01-31T03:10:31.048Z,987.28
2023-01-31T03:11:31.041Z,987.24
2023-01-31T03:12:31.059Z,987.26
2023-01-31T03:13:31.008Z,987.33
2023-01-31T03:14:31.000Z,987.22
2023-01-31T03:15:30.980Z,987.20
2023-01-31T03:16:30.997Z,987.29
2023-01-31T03:17:30.960Z,987.22
2023-01-31T03:18:30.938Z,987.25
2023-01-31T03:19:30.930Z,987.21
2023-01-31T03:20:30.913Z,987.20
2023-01-31T03:21:30.902Z,987.24
2023-01-31T03:22:30.884Z,987.27
2023-01-31T03:23:30.880Z,987.19
2023-01-31T03:24:30.869Z,987.17
2023-01-31T03:25:30.856Z,987.21
2023-01-31T03:26:30.852Z,987.21
2023-01-31T03:27:30.818Z,987.16
2023-01-31T03:28:30.831Z,987.19
2023-01-31T03:29:30.789Z,987.21
2023-01-31T03:30:30.774Z,987.21
2023-01-31T03:31:31.042Z,987.20
2023-01-31T03:32:30.753Z,987.27
2023-01-31T03:33:30.738Z,987.30
2023-01-31T03:34:30.724Z,987.33
2023-01-31T03:35:30.715Z,987.38
2023-01-31T03:36:30.698Z,987.44
2023-01-31T03:37:30.702Z,987.44
2023-01-31T03:38:30.678Z,987.38
2023-01-31T03:39:30.664Z,987.36
2023-01-31T03:40:30.642Z,987.47
2023-01-31T03:41:30.631Z,987.37
2023-01-31T03:42:30.616Z,987.42
2023-01-31T03:43:30.608Z,987.41
2023-01-31T03:44:30.811Z,987.39
2023-01-31T03:45:30.582Z,987.46
2023-01-31T03:46:30.636Z,987.46
2023-01-31T03:47:30.557Z,987.41
2023-01-31T03:48:30.544Z,987.42
2023-01-31T03:49:30.526Z,987.46
2023-01-31T03:50:30.517Z,987.53
2023-01-31T03:51:30.502Z,987.49
2023-01-31T03:52:30.486Z,987.48
2023-01-31T03:53:30.473Z,987.51
2023-01-31T03:54:30.469Z,987.51
2023-01-31T03:55:30.457Z,987.45
2023-01-31T03:56:30.447Z,987.44
2023-01-31T03:57:30.577Z,987.46
2023-01-31T03:58:30.448Z,987.41
2023-01-31T03:59:30.396Z,987.31
2023-01-31T04:00:30.657Z,987.52
2023-01-31T04:01:30.432Z,987.34
2023-01-31T04:02:30.370Z,987.39
2023-01-31T04:03:30.545Z,987.31
2023-01-31T04:04:30.326Z,987.41
2023-01-31T04:05:30.672Z,987.39
2023-01-31T04:06:30.307Z,987.38
2023-01-31T04:07:30.301Z,987.41
2023-01-31T04:08:30.280Z,987.37
2023-01-31T04:09:30.268Z,987.40
2023-01-31T04:10:30.249Z,987.32
2023-01-31T04:11:30.242Z,987.39
2023-01-31T04:12:30.229Z,987.35
2023-01-31T04:13:30.210Z,987.37
2023-01-31T04:14:30.203Z,987.36
2023-01-31T04:15:30.182Z,987.38
2023-01-31T04:16:30.203Z,987.48
2023-01-31T04:17:30.167Z,987.48
2023-01-31T04:18:30.154Z,987.51
2023-01-31T04:19:30.135Z,987.44
2023-01-31T04:20:30.123Z,987.43
2023-01-31T04:21:30.112Z,987.43
2023-01-31T04:22:30.096Z,987.44
2023-01-31T04:23:30.084Z,987.35
2023-01-31T04:24:30.067Z,987.39
2023-01-31T04:25:32.684Z,987.45
2023-01-31T04:26:30.087Z,987.48
2023-01-31T04:27:30.030Z,987.43
2023-01-31T04:28:30.013Z,987.43
2023-01-31T04:29:30.546Z,987.38
2023-01-31T04:30:29.998Z,987.35
2023-01-31T04:31:30.101Z,987.46
2023-01-31T04:32:29.981Z,987.45
2023-01-31T04:33:29.943Z,987.43
2023-01-31T04:34:30.034Z,987.47
2023-01-31T04:35:29.920Z,987.38
2023-01-31T04:36:29.910Z,987.42
2023-01-31T04:37:29.916Z,987.39
2023-01-31T04:38:29.894Z,987.42
2023-01-31T04:39:30.065Z,987.49
2023-01-31T04:40:29.856Z,987.46
2023-01-31T04:41:29.845Z,987.46
2023-01-31T04:42:29.833Z,987.49
2023-01-31T04:43:29.821Z,987.51
2023-01-31T04:44:30.010Z,987.49
2023-01-31T04:45:29.788Z,987.49
2023-01-31T04:46:29.796Z,987.51
2023-01-31T04:47:29.763Z,987.46
2023-01-31T04:48:30.116Z,987.50
2023-01-31T04:49:30.038Z,987.42
2023-01-31T04:50:29.721Z,987.53
2023-01-31T04:51:29.713Z,987.52
2023-01-31T04:52:29.699Z,987.57
2023-01-31T04:53:29.681Z,987.51
2023-01-31T04:54:29.667Z,987.61
2023-01-31T04:55:29.655Z,987.50
2023-01-31T04:56:29.950Z,987.54
2023-01-31T04:57:29.632Z,987.50
2023-01-31T04:58:29.628Z,987.54
2023-01-31T04:59:29.614Z,987.52
2023-01-31T05:00:29.625Z,987.54
2023-01-31T05:01:29.584Z,987.47
2023-01-31T05:02:29.652Z,987.54
2023-01-31T05:03:29.554Z,987.53
2023-01-31T05:04:29.573Z,987.57
2023-01-31T05:05:29.537Z,987.61
2023-01-31T05:06:29.507Z,987.64
2023-01-31T05:07:29.494Z,987.58
2023-01-31T05:08:29.476Z,987.55
2023-01-31T05:09:29.474Z,987.59
2023-01-31T05:10:29.454Z,987.62
2023-01-31T05:11:29.442Z,987.63
2023-01-31T05:12:29.436Z,987.63
2023-01-31T05:13:29.417Z,987.64
2023-01-31T05:14:29.404Z,987.62
2023-01-31T05:15:29.394Z,987.58
2023-01-31T05:16:29.427Z,987.53
2023-01-31T05:17:29.360Z,987.53
2023-01-31T05:18:29.348Z,987.58
2023-01-31T05:19:29.335Z,987.51
2023-01-31T05:20:29.345Z,987.54
2023-01-31T05:21:29.305Z,987.56
2023-01-31T05:22:29.302Z,987.56
2023-01-31T05:23:29.281Z,987.46
2023-01-31T05:24:29.270Z,987.58
2023-01-31T05:25:29.256Z,987.70
2023-01-31T05:26:29.318Z,987.58
2023-01-31T05:27:29.243Z,987.57
2023-01-31T05:28:29.212Z,987.58
2023-01-31T05:29:29.202Z,987.59
2023-01-31T05:30:29.203Z,987.58
2023-01-31T05:31:29.201Z,987.59
2023-01-31T05:32:29.184Z,987.55
2023-01-31T05:33:30.248Z,987.54
2023-01-31T05:34:29.142Z,987.57
2023-01-31T05:35:29.127Z,987.53
2023-01-31T05:36:29.146Z,987.52
2023-01-31T05:37:29.104Z,987.52
2023-01-31T05:38:29.121Z,987.55
2023-01-31T05:39:29.084Z,987.60
2023-01-31T05:40:29.054Z,987.47
2023-01-31T05:41:29.050Z,987.52
2023-01-31T05:42:29.034Z,987.51
2023-01-31T05:43:29.027Z,987.51
2023-01-31T05:44:29.010Z,987.52
2023-01-31T05:45:29.053Z,987.58
2023-01-31T05:46:28.984Z,987.58
2023-01-31T05:47:28.966Z,987.51
2023-01-31T05:48:28.954Z,987.46
2023-01-31T05:49:28.936Z,987.51
2023-01-31T05:50:28.955Z,987.52
2023-01-31T05:51:28.908Z,987.49
2023-01-31T05:52:29.125Z,987.48
2023-01-31T05:53:28.896Z,987.52
2023-01-31T05:54:28.870Z,987.48
2023-01-31T05:55:28.877Z,987.46
2023-01-31T05:56:28.862Z,987.52
2023-01-31T05:57:28.844Z,987.45
2023-01-31T05:58:28.819Z,987.52
2023-01-31T05:59:28.799Z,987.53
2023-01-31T06:00:28.790Z,987.52
2023-01-31T06:01:28.905Z,987.56
2023-01-31T06:02:28.848Z,987.58
2023-01-31T06:03:28.821Z,987.60
2023-01-31T06:04:28.732Z,987.56
2023-01-31T06:05:28.719Z,987.60
2023-01-31T06:06:28.703Z,987.55
2023-01-31T06:07:28.692Z,987.60
2023-01-31T06:08:28.707Z,987.51
2023-01-31T06:09:28.675Z,987.63
2023-01-31T06:10:28.655Z,987.59
2023-01-31T06:11:28.639Z,987.63
2023-01-31T06:12:28.642Z,987.59
2023-01-31T06:13:28.616Z,987.59
2023-01-31T06:14:28.603Z,987.58
2023-01-31T06:15:28.581Z,987.62
2023-01-31T06:16:28.616Z,987.59
2023-01-31T06:17:30.233Z,987.59
2023-01-31T06:18:28.541Z,987.67
2023-01-31T06:19:28.529Z,987.63
2023-01-31T06:20:28.511Z,987.66
2023-01-31T06:21:28.503Z,987.60
2023-01-31T06:22:28.487Z,987.66
2023-01-31T06:23:28.474Z,987.60
2023-01-31T06:24:28.486Z,987.63
2023-01-31T06:25:28.454Z,987.68
2023-01-31T06:26:28.470Z,987.68
2023-01-31T06:27:28.427Z,987.60
2023-01-31T06:28:28.439Z,987.67
2023-01-31T06:29:28.393Z,987.64
2023-01-31T06:30:28.580Z,987.69
2023-01-31T06:31:28.538Z,987.68
2023-01-31T06:32:28.350Z,987.71
2023-01-31T06:33:42.104Z,987.72
2023-01-31T06:34:28.328Z,987.79
2023-01-31T06:35:28.309Z,987.75
2023-01-31T06:36:28.292Z,987.73
2023-01-31T06:37:28.293Z,987.73
2023-01-31T06:38:28.271Z,987.80
2023-01-31T06:39:28.262Z,987.85
2023-01-31T06:40:28.268Z,987.77
2023-01-31T06:41:28.229Z,987.82
2023-01-31T06:42:28.226Z,987.78
2023-01-31T06:43:28.202Z,987.69
2023-01-31T06:44:28.186Z,987.71
2023-01-31T06:45:28.180Z,987.71
2023-01-31T06:46:28.162Z,987.71
2023-01-31T06:47:28.215Z,987.73
2023-01-31T06:48:28.131Z,987.76
2023-01-31T06:49:28.167Z,987.77
2023-01-31T06:50:28.104Z,987.76
2023-01-31T06:51:28.100Z,987.73
2023-01-31T06:52:28.085Z,987.69
2023-01-31T06:53:28.080Z,987.75
2023-01-31T06:54:28.060Z,987.76
2023-01-31T06:55:28.056Z,987.87
2023-01-31T06:56:28.051Z,987.86
2023-01-31T06:57:28.010Z,987.85
2023-01-31T06:58:28.001Z,987.82
2023-01-31T06:59:27.997Z,987.80
2023-01-31T07:00:27.974Z,987.80
2023-01-31T07:01:27.971Z,987.88
2023-01-31T07:02:27.975Z,987.88
2023-01-31T07:03:27.934Z,987.88
2023-01-31T07:04:27.969Z,987.81
2023-01-31T07:05:27.911Z,987.80
2023-01-31T07:06:27.906Z,987.74
2023-01-31T07:07:27.884Z,987.78
2023-01-31T07:08:27.872Z,987.81
2023-01-31T07:09:27.861Z,987.78
2023-01-31T07:10:27.907Z,987.70
2023-01-31T07:11:27.835Z,987.72
2023-01-31T07:12:27.839Z,987.68
2023-01-31T07:13:27.803Z,987.69
2023-01-31T07:14:27.789Z,987.66
2023-01-31T07:15:27.774Z,987.73
2023-01-31T07:16:27.834Z,987.72
2023-01-31T07:17:27.759Z,987.80
2023-01-31T07:18:27.739Z,987.74
2023-01-31T07:19:27.729Z,987.76
2023-01-31T07:20:27.713Z,987.76
2023-01-31T07:21:27.700Z,987.68
2023-01-31T07:22:27.686Z,987.73
2023-01-31T07:23:27.669Z,987.77
2023-01-31T07:24:27.660Z,987.72
2023-01-31T07:25:27.727Z,987.74
2023-01-31T07:26:27.682Z,987.74
2023-01-31T07:27:27.615Z,987.77
2023-01-31T07:28:27.626Z,987.69
2023-01-31T07:29:27.588Z,987.75
2023-01-31T07:30:27.615Z,987.75
2023-01-31T07:31:27.592Z,987.68
2023-01-31T07:32:27.557Z,987.70
2023-01-31T07:33:27.787Z,987.64
2023-01-31T07:34:27.517Z,987.65
2023-01-31T07:35:27.507Z,987.71
2023-01-31T07:36:27.493Z,987.81
2023-01-31T07:37:27.476Z,987.77
2023-01-31T07:38:27.466Z,987.80
2023-01-31T07:39:27.464Z,987.81
2023-01-31T07:40:27.440Z,987.74
2023-01-31T07:41:27.419Z,987.82
2023-01-31T07:42:27.408Z,987.82
2023-01-31T07:43:27.392Z,987.87
2023-01-31T07:44:27.409Z,987.86
2023-01-31T07:45:27.374Z,987.87
2023-01-31T07:46:27.455Z,987.88
2023-01-31T07:47:27.351Z,987.83
2023-01-31T07:48:27.333Z,987.82
2023-01-31T07:49:27.322Z,987.83
2023-01-31T07:50:27.374Z,987.86
2023-01-31T07:51:27.301Z,987.81
2023-01-31T07:52:27.278Z,987.85
2023-01-31T07:53:27.265Z,987.79
2023-01-31T07:54:27.250Z,987.79
2023-01-31T07:55:27.246Z,987.82
2023-01-31T07:56:27.229Z,987.76
2023-01-31T07:57:27.219Z,987.77
2023-01-31T07:58:27.207Z,987.75
2023-01-31T07:59:27.239Z,987.75
2023-01-31T08:00:27.264Z,987.69
2023-01-31T08:01:27.216Z,987.70
2023-01-31T08:02:27.147Z,987.74
2023-01-31T08:03:27.332Z,987.77
2023-01-31T08:04:27.124Z,987.77
2023-01-31T08:05:27.108Z,987.76
2023-01-31T08:06:27.145Z,987.74
2023-01-31T08:07:27.226Z,987.74
2023-01-31T08:08:27.078Z,987.72
2023-01-31T08:09:27.059Z,987.76
2023-01-31T08:10:27.130Z,987.75
2023-01-31T08:11:27.030Z,987.73
2023-01-31T08:12:27.022Z,987.75
2023-01-31T08:13:27.075Z,987.78
2023-01-31T08:14:26.985Z,987.75
2023-01-31T08:15:27.253Z,987.79
2023-01-31T08:16:26.980Z,987.83
2023-01-31T08:17:27.017Z,987.83
2023-01-31T08:18:27.192Z,987.83
2023-01-31T08:19:27.213Z,987.82
2023-01-31T08:20:26.964Z,987.79
2023-01-31T08:21:26.892Z,987.84
2023-01-31T08:22:26.874Z,987.79
2023-01-31T08:23:26.860Z,987.77
2023-01-31T08:24:27.152Z,987.77
2023-01-31T08:25:27.094Z,987.76
2023-01-31T08:26:26.902Z,987.77
2023-01-31T08:27:26.812Z,987.73
2023-01-31T08:28:26.796Z,987.72
2023-01-31T08:29:26.785Z,987.78
2023-01-31T08:30:26.952Z,987.75
2023-01-31T08:31:26.904Z,987.73
2023-01-31T08:32:26.814Z,987.76
2023-01-31T08:33:26.725Z,987.72
2023-01-31T08:34:26.714Z,987.75
2023-01-31T08:35:26.702Z,987.68
2023-01-31T08:36:26.686Z,987.76
2023-01-31T08:37:26.674Z,987.67
2023-01-31T08:38:26.731Z,987.75
2023-01-31T08:39:26.651Z,987.73
2023-01-31T08:40:26.639Z,987.72
2023-01-31T08:41:26.642Z,987.74
2023-01-31T08:42:26.605Z,987.72
2023-01-31T08:43:26.595Z,987.69
2023-01-31T08:44:26.590Z,987.69
2023-01-31T08:45:26.566Z,987.67
2023-01-31T08:46:26.667Z,987.68
2023-01-31T08:47:26.536Z,987.57
2023-01-31T08:48:26.570Z,987.61
2023-01-31T08:49:26.511Z,987.50
2023-01-31T08:50:28.139Z,987.59
2023-01-31T08:51:26.482Z,987.56
2023-01-31T08:52:26.469Z,987.56
2023-01-31T08:53:26.453Z,987.51
2023-01-31T08:54:26.438Z,987.51
2023-01-31T08:55:26.433Z,987.45
2023-01-31T08:56:26.462Z,987.51
2023-01-31T08:57:26.405Z,987.48
2023-01-31T08:58:26.386Z,987.46
2023-01-31T08:59:26.382Z,987.39
2023-01-31T09:00:26.359Z,987.32
2023-01-31T09:01:26.397Z,987.33
2023-01-31T09:02:26.355Z,987.34
2023-01-31T09:03:26.323Z,987.32
2023-01-31T09:04:26.337Z,987.31
2023-01-31T09:05:26.297Z,987.30
2023-01-31T09:06:26.310Z,987.27
2023-01-31T09:07:26.275Z,987.30
2023-01-31T09:08:26.255Z,987.25
2023-01-31T09:09:27.434Z,987.23
2023-01-31T09:10:26.231Z,987.21
2023-01-31T09:11:26.216Z,987.26
2023-01-31T09:12:26.197Z,987.28
2023-01-31T09:13:26.186Z,987.27
2023-01-31T09:14:26.171Z,987.30
2023-01-31T09:15:26.159Z,987.20
2023-01-31T09:16:26.272Z,987.25
2023-01-31T09:17:26.136Z,987.29
2023-01-31T09:18:26.132Z,987.28
2023-01-31T09:19:26.105Z,987.22
2023-01-31T09:20:26.119Z,987.37
2023-01-31T09:21:26.087Z,987.30
2023-01-31T09:22:26.071Z,987.29
2023-01-31T09:23:26.056Z,987.21
2023-01-31T09:24:26.047Z,987.25
2023-01-31T09:25:42.336Z,987.22
2023-01-31T09:26:27.099Z,987.15
2023-01-31T09:27:26.011Z,987.22
2023-01-31T09:28:25.988Z,987.33
2023-01-31T09:29:25.974Z,987.33
2023-01-31T09:30:26.002Z,987.35
2023-01-31T09:31:26.006Z,987.33
2023-01-31T09:32:26.042Z,987.32
2023-01-31T09:33:25.923Z,987.29
2023-01-31T09:34:25.912Z,987.39
2023-01-31T09:35:25.890Z,987.36
2023-01-31T09:36:25.911Z,987.21
2023-01-31T09:37:26.174Z,987.24
2023-01-31T09:38:25.869Z,987.20
2023-01-31T09:39:25.843Z,987.24
2023-01-31T09:40:25.826Z,987.29
2023-01-31T09:41:25.813Z,987.21
2023-01-31T09:42:26.050Z,987.18
2023-01-31T09:43:25.786Z,987.21
2023-01-31T09:44:25.777Z,987.28
2023-01-31T09:45:25.757Z,987.23
2023-01-31T09:46:25.777Z,987.29
2023-01-31T09:47:25.726Z,987.25
2023-01-31T09:48:25.712Z,987.13
2023-01-31T09:49:25.707Z,987.26
2023-01-31T09:50:25.688Z,987.21
2023-01-31T09:51:25.685Z,987.24
2023-01-31T09:52:25.695Z,987.29
2023-01-31T09:53:25.645Z,987.21
2023-01-31T09:54:25.634Z,987.20
2023-01-31T09:55:25.623Z,987.17
2023-01-31T09:56:25.610Z,987.16
2023-01-31T09:57:25.598Z,987.14
2023-01-31T09:58:25.579Z,987.13
2023-01-31T09:59:25.566Z,987.07
2023-01-31T10:00:25.556Z,987.11
2023-01-31T10:01:25.545Z,987.11
2023-01-31T10:02:25.528Z,986.98
2023-01-31T10:03:25.532Z,986.99
2023-01-31T10:04:25.696Z,987.01
2023-01-31T10:05:25.487Z,986.95
2023-01-31T10:06:25.481Z,986.97
2023-01-31T10:07:25.459Z,986.95
2023-01-31T10:08:25.491Z,986.92
2023-01-31T10:09:25.779Z,986.98
2023-01-31T10:10:25.411Z,986.93
2023-01-31T10:11:25.403Z,986.89
2023-01-31T10:12:25.389Z,986.95
2023-01-31T10:13:25.376Z,986.94
2023-01-31T10:14:25.363Z,986.93
2023-01-31T10:15:25.347Z,986.94
2023-01-31T10:16:25.334Z,986.97
2023-01-31T10:17:25.362Z,986.95
2023-01-31T10:18:25.310Z,986.95
2023-01-31T10:19:25.297Z,987.11
2023-01-31T10:20:25.279Z,987.00
2023-01-31T10:21:25.264Z,987.05
2023-01-31T10:22:25.250Z,987.02
2023-01-31T10:23:25.251Z,987.12
2023-01-31T10:24:25.248Z,987.13
2023-01-31T10:25:25.210Z,987.09
2023-01-31T10:26:25.230Z,987.14
2023-01-31T10:27:25.196Z,987.09
2023-01-31T10:28:25.168Z,987.10
2023-01-31T10:29:25.157Z,987.09
2023-01-31T10:30:25.271Z,987.09
2023-01-31T10:31:25.143Z,987.14
2023-01-31T10:32:25.115Z,987.10
2023-01-31T10:33:25.111Z,987.07
2023-01-31T10:34:25.103Z,987.15
2023-01-31T10:35:25.079Z,987.15
2023-01-31T10:36:25.071Z,987.15
2023-01-31T10:37:25.053Z,987.22
2023-01-31T10:38:25.038Z,987.14
2023-01-31T10:39:25.028Z,987.14
2023-01-31T10:40:25.166Z,987.10
2023-01-31T10:41:25.001Z,987.08
2023-01-31T10:42:24.996Z,987.07
2023-01-31T10:43:24.965Z,987.00
2023-01-31T10:44:24.952Z,987.07
2023-01-31T10:45:24.940Z,987.04
2023-01-31T10:46:24.932Z,986.98
2023-01-31T10:47:24.911Z,986.99
2023-01-31T10:48:24.914Z,987.04
2023-01-31T10:49:24.890Z,986.98
2023-01-31T10:50:24.883Z,987.01
2023-01-31T10:51:24.868Z,986.93
2023-01-31T10:52:24.846Z,986.88
2023-01-31T10:53:24.834Z,986.96
2023-01-31T10:54:24.822Z,986.90
2023-01-31T10:55:24.804Z,986.91
2023-01-31T10:56:24.809Z,986.86
2023-01-31T10:57:24.779Z,986.89
2023-01-31T10:58:24.771Z,986.90
2023-01-31T10:59:24.748Z,986.78
2023-01-31T11:00:24.737Z,986.75
2023-01-31T11:01:24.767Z,986.75
2023-01-31T11:02:24.807Z,986.80
2023-01-31T11:03:24.748Z,986.77
2023-01-31T11:04:24.692Z,986.79
2023-01-31T11:05:24.674Z,986.82
2023-01-31T11:06:24.659Z,986.80
2023-01-31T11:07:24.644Z,986.86
2023-01-31T11:08:24.626Z,986.80
2023-01-31T11:09:24.617Z,986.78
2023-01-31T11:10:24.632Z,986.75
2023-01-31T11:11:24.598Z,986.87
2023-01-31T11:12:24.606Z,986.85
2023-01-31T11:13:24.567Z,986.75
2023-01-31T11:14:24.555Z,986.89
2023-01-31T11:15:24.540Z,986.74
2023-01-31T11:16:24.595Z,986.80
2023-01-31T11:17:24.511Z,986.75
2023-01-31T11:18:24.499Z,986.69
2023-01-31T11:19:24.488Z,986.80
2023-01-31T11:20:24.665Z,986.76
2023-01-31T11:21:24.476Z,986.65
2023-01-31T11:22:24.437Z,986.77
2023-01-31T11:23:24.444Z,986.68
2023-01-31T11:24:24.424Z,986.66
2023-01-31T11:25:24.399Z,986.57
2023-01-31T11:26:24.397Z,986.59
2023-01-31T11:27:24.379Z,986.60
2023-01-31T11:28:24.397Z,986.54
2023-01-31T11:29:24.366Z,986.48
2023-01-31T11:30:24.545Z,986.63
2023-01-31T11:31:24.340Z,986.53
2023-01-31T11:32:24.304Z,986.49
2023-01-31T11:33:24.296Z,986.58
2023-01-31T11:34:24.285Z,986.54
2023-01-31T11:35:24.268Z,986.65
2023-01-31T11:36:24.272Z,986.61
2023-01-31T11:37:24.260Z,986.65
2023-01-31T11:38:24.252Z,986.66
2023-01-31T11:39:24.210Z,986.67
2023-01-31T11:40:24.192Z,986.58
2023-01-31T11:41:24.190Z,986.62
2023-01-31T11:42:24.168Z,986.60
2023-01-31T11:43:24.176Z,986.54
2023-01-31T11:44:24.391Z,986.57
2023-01-31T11:45:24.136Z,986.57
2023-01-31T11:46:24.155Z,986.49
2023-01-31T11:47:24.103Z,986.57
2023-01-31T11:48:24.084Z,986.36
2023-01-31T11:49:24.356Z,986.40
2023-01-31T11:50:26.809Z,986.21
2023-01-31T11:51:24.045Z,986.25
2023-01-31T11:52:24.039Z,986.19
2023-01-31T11:53:24.042Z,986.18
2023-01-31T11:54:24.059Z,986.12
2023-01-31T11:55:24.009Z,986.19
2023-01-31T11:56:23.983Z,986.12
2023-01-31T11:57:23.979Z,986.17
2023-01-31T11:58:23.952Z,986.23
2023-01-31T11:59:24.147Z,986.16
2023-01-31T12:00:24.061Z,986.10
2023-01-31T12:01:23.908Z,985.98
2023-01-31T12:02:23.972Z,986.00
2023-01-31T12:03:23.946Z,986.11
2023-01-31T12:04:23.940Z,986.04
2023-01-31T12:05:23.862Z,985.95
2023-01-31T12:06:24.550Z,986.08
2023-01-31T12:07:23.865Z,986.04
2023-01-31T12:08:23.831Z,985.93
2023-01-31T12:09:23.817Z,985.90
2023-01-31T12:10:23.798Z,986.01
2023-01-31T12:11:23.777Z,985.94
2023-01-31T12:12:24.014Z,986.08
2023-01-31T12:13:23.749Z,986.09
2023-01-31T12:14:23.728Z,986.17
2023-01-31T12:15:23.715Z,986.16
2023-01-31T12:16:23.866Z,986.19
2023-01-31T12:17:23.695Z,986.21
2023-01-31T12:18:23.678Z,986.22
2023-01-31T12:19:23.666Z,986.24
2023-01-31T12:20:28.814Z,986.26
2023-01-31T12:21:23.648Z,986.27
2023-01-31T12:22:23.627Z,986.20
2023-01-31T12:23:23.635Z,986.06
2023-01-31T12:24:23.606Z,986.13
2023-01-31T12:25:23.681Z,986.13
2023-01-31T12:26:23.585Z,986.17
2023-01-31T12:27:23.553Z,986.12
2023-01-31T12:28:23.692Z,986.14